sensor_id;sensor_type;location;lat;lon;timestamp;temperature;humidity
3868;DHT22;1949;48.152;11.528;2023-08-06T00:01:18;20.90;55.50
3868;DHT22;1949;48.152;11.528;2023-08-06T00:03:46;20.80;55.60
3868;DHT22;1949;48.152;11.528;2023-08-06T00:06:13;20.80;55.70
3868;DHT22;1949;48.152;11.528;2023-08-06T00:08:42;20.80;55.80
3868;DHT22;1949;48.152;11.528;2023-08-06T00:11:09;20.80;55.80
3868;DHT22;1949;48.152;11.528;2023-08-06T00:13:41;20.90;55.80
3868;DHT22;1949;48.152;11.528;2023-08-06T00:16:11;20.90;55.80
3868;DHT22;1949;48.152;11.528;2023-08-06T00:18:39;20.90;55.80
3868;DHT22;1949;48.152;11.528;2023-08-06T00:21:08;20.90;55.80
3868;DHT22;1949;48.152;11.528;2023-08-06T00:23:33;20.90;55.80
3868;DHT22;1949;48.152;11.528;2023-08-06T00:26:01;20.80;55.40
3868;DHT22;1949;48.152;11.528;2023-08-06T00:28:27;20.80;55.30
3868;DHT22;1949;48.152;11.528;2023-08-06T00:30:54;20.70;55.20
3868;DHT22;1949;48.152;11.528;2023-08-06T00:33:23;20.70;55.40
3868;DHT22;1949;48.152;11.528;2023-08-06T00:35:51;20.60;55.50
3868;DHT22;1949;48.152;11.528;2023-08-06T00:38:22;20.60;55.50
3868;DHT22;1949;48.152;11.528;2023-08-06T00:40:51;20.60;55.40
3868;DHT22;1949;48.152;11.528;2023-08-06T00:43:20;20.60;55.40
3868;DHT22;1949;48.152;11.528;2023-08-06T00:45:49;20.60;56.00
3868;DHT22;1949;48.152;11.528;2023-08-06T00:48:18;20.60;55.30
3868;DHT22;1949;48.152;11.528;2023-08-06T00:50:47;20.60;55.40
3868;DHT22;1949;48.152;11.528;2023-08-06T00:53:13;20.60;55.30
3868;DHT22;1949;48.152;11.528;2023-08-06T00:55:40;20.60;55.30
3868;DHT22;1949;48.152;11.528;2023-08-06T00:58:12;20.60;55.10
3868;DHT22;1949;48.152;11.528;2023-08-06T01:00:49;20.60;55.30
3868;DHT22;1949;48.152;11.528;2023-08-06T01:03:15;20.60;55.20
3868;DHT22;1949;48.152;11.528;2023-08-06T01:05:42;20.60;55.20
3868;DHT22;1949;48.152;11.528;2023-08-06T01:11:14;20.50;54.80
3868;DHT22;1949;48.152;11.528;2023-08-06T01:13:46;20.50;54.80
3868;DHT22;1949;48.152;11.528;2023-08-06T01:16:19;20.40;54.80
3868;DHT22;1949;48.152;11.528;2023-08-06T01:18:52;20.40;55.10
3868;DHT22;1949;48.152;11.528;2023-08-06T01:21:21;20.30;55.00
3868;DHT22;1949;48.152;11.528;2023-08-06T01:23:56;20.20;55.00
3868;DHT22;1949;48.152;11.528;2023-08-06T01:26:36;20.20;55.10
3868;DHT22;1949;48.152;11.528;2023-08-06T01:29:22;20.20;55.40
3868;DHT22;1949;48.152;11.528;2023-08-06T01:31:53;20.20;55.30
3868;DHT22;1949;48.152;11.528;2023-08-06T01:34:25;20.20;55.20
3868;DHT22;1949;48.152;11.528;2023-08-06T01:36:56;20.20;55.70
3868;DHT22;1949;48.152;11.528;2023-08-06T01:39:26;20.20;55.20
3868;DHT22;1949;48.152;11.528;2023-08-06T01:41:56;20.20;55.20
3868;DHT22;1949;48.152;11.528;2023-08-06T01:44:24;20.20;55.20
3868;DHT22;1949;48.152;11.528;2023-08-06T01:46:50;20.10;55.20
3868;DHT22;1949;48.152;11.528;2023-08-06T01:49:16;20.10;55.10
3868;DHT22;1949;48.152;11.528;2023-08-06T01:51:43;20.00;55.30
3868;DHT22;1949;48.152;11.528;2023-08-06T01:54:12;20.00;55.30
3868;DHT22;1949;48.152;11.528;2023-08-06T01:56:38;20.00;55.50
3868;DHT22;1949;48.152;11.528;2023-08-06T01:59:12;20.00;55.40
3868;DHT22;1949;48.152;11.528;2023-08-06T02:01:40;19.90;55.30
3868;DHT22;1949;48.152;11.528;2023-08-06T02:04:09;19.90;55.30
3868;DHT22;1949;48.152;11.528;2023-08-06T02:06:35;19.90;55.50
3868;DHT22;1949;48.152;11.528;2023-08-06T02:09:09;19.90;55.30
3868;DHT22;1949;48.152;11.528;2023-08-06T02:11:46;19.80;55.20
3868;DHT22;1949;48.152;11.528;2023-08-06T02:14:14;19.80;55.20
3868;DHT22;1949;48.152;11.528;2023-08-06T02:16:42;19.70;55.30
3868;DHT22;1949;48.152;11.528;2023-08-06T02:19:11;19.70;55.40
3868;DHT22;1949;48.152;11.528;2023-08-06T02:21:51;19.60;55.40
3868;DHT22;1949;48.152;11.528;2023-08-06T02:24:18;19.60;55.40
3868;DHT22;1949;48.152;11.528;2023-08-06T02:26:43;19.60;55.60
3868;DHT22;1949;48.152;11.528;2023-08-06T02:29:12;19.50;55.40
3868;DHT22;1949;48.152;11.528;2023-08-06T02:31:38;19.50;55.40
3868;DHT22;1949;48.152;11.528;2023-08-06T02:34:03;19.50;55.40
3868;DHT22;1949;48.152;11.528;2023-08-06T02:36:29;19.60;55.40
3868;DHT22;1949;48.152;11.528;2023-08-06T02:38:55;19.50;55.40
3868;DHT22;1949;48.152;11.528;2023-08-06T02:41:21;19.50;55.60
3868;DHT22;1949;48.152;11.528;2023-08-06T02:43:46;19.50;55.50
3868;DHT22;1949;48.152;11.528;2023-08-06T02:46:13;19.50;55.40
3868;DHT22;1949;48.152;11.528;2023-08-06T02:48:39;19.50;55.50
3868;DHT22;1949;48.152;11.528;2023-08-06T02:51:04;19.50;55.40
3868;DHT22;1949;48.152;11.528;2023-08-06T02:53:34;19.50;55.60
3868;DHT22;1949;48.152;11.528;2023-08-06T02:56:00;19.50;55.60
3868;DHT22;1949;48.152;11.528;2023-08-06T02:58:26;19.50;55.60
3868;DHT22;1949;48.152;11.528;2023-08-06T03:01:05;19.60;55.60
3868;DHT22;1949;48.152;11.528;2023-08-06T03:03:34;19.50;55.20
3868;DHT22;1949;48.152;11.528;2023-08-06T03:06:04;19.40;55.20
3868;DHT22;1949;48.152;11.528;2023-08-06T03:08:31;19.40;55.40
3868;DHT22;1949;48.152;11.528;2023-08-06T03:11:01;19.40;55.40
3868;DHT22;1949;48.152;11.528;2023-08-06T03:13:31;19.30;55.30
3868;DHT22;1949;48.152;11.528;2023-08-06T03:15:59;19.30;55.40
3868;DHT22;1949;48.152;11.528;2023-08-06T03:18:25;19.20;55.50
3868;DHT22;1949;48.152;11.528;2023-08-06T03:20:55;19.20;55.60
3868;DHT22;1949;48.152;11.528;2023-08-06T03:23:29;19.20;55.70
3868;DHT22;1949;48.152;11.528;2023-08-06T03:26:04;19.20;55.70
3868;DHT22;1949;48.152;11.528;2023-08-06T03:28:33;19.20;55.60
3868;DHT22;1949;48.152;11.528;2023-08-06T03:31:08;19.20;55.60
3868;DHT22;1949;48.152;11.528;2023-08-06T03:33:36;19.20;55.70
3868;DHT22;1949;48.152;11.528;2023-08-06T03:36:03;19.20;55.90
3868;DHT22;1949;48.152;11.528;2023-08-06T03:38:29;19.20;55.80
3868;DHT22;1949;48.152;11.528;2023-08-06T03:40:54;19.20;55.60
3868;DHT22;1949;48.152;11.528;2023-08-06T03:43:20;19.30;55.80
3868;DHT22;1949;48.152;11.528;2023-08-06T03:45:51;19.30;55.90
3868;DHT22;1949;48.152;11.528;2023-08-06T03:48:16;19.30;55.50
3868;DHT22;1949;48.152;11.528;2023-08-06T03:50:42;19.30;55.40
3868;DHT22;1949;48.152;11.528;2023-08-06T03:53:08;19.30;55.30
3868;DHT22;1949;48.152;11.528;2023-08-06T03:55:37;19.20;55.30
3868;DHT22;1949;48.152;11.528;2023-08-06T03:58:03;19.20;55.50
3868;DHT22;1949;48.152;11.528;2023-08-06T04:00:30;19.20;55.40
3868;DHT22;1949;48.152;11.528;2023-08-06T04:02:56;19.20;55.60
3868;DHT22;1949;48.152;11.528;2023-08-06T04:05:26;19.20;55.50
3868;DHT22;1949;48.152;11.528;2023-08-06T04:07:52;19.20;55.60
3868;DHT22;1949;48.152;11.528;2023-08-06T04:10:24;19.20;55.60
3868;DHT22;1949;48.152;11.528;2023-08-06T04:12:50;19.20;55.50
3868;DHT22;1949;48.152;11.528;2023-08-06T04:15:27;19.20;55.60
3868;DHT22;1949;48.152;11.528;2023-08-06T04:17:53;19.20;55.50
3868;DHT22;1949;48.152;11.528;2023-08-06T04:20:22;19.20;55.30
3868;DHT22;1949;48.152;11.528;2023-08-06T04:22:48;19.30;55.50
3868;DHT22;1949;48.152;11.528;2023-08-06T04:25:14;19.30;55.40
3868;DHT22;1949;48.152;11.528;2023-08-06T04:27:42;19.30;55.50
3868;DHT22;1949;48.152;11.528;2023-08-06T04:30:08;19.30;55.30
3868;DHT22;1949;48.152;11.528;2023-08-06T04:32:35;19.30;55.10
3868;DHT22;1949;48.152;11.528;2023-08-06T04:35:01;19.30;55.30
3868;DHT22;1949;48.152;11.528;2023-08-06T04:37:28;19.30;55.10
3868;DHT22;1949;48.152;11.528;2023-08-06T04:39:54;19.30;55.20
3868;DHT22;1949;48.152;11.528;2023-08-06T04:42:20;19.20;55.00
3868;DHT22;1949;48.152;11.528;2023-08-06T04:44:50;19.20;55.10
3868;DHT22;1949;48.152;11.528;2023-08-06T04:47:17;19.10;54.90
3868;DHT22;1949;48.152;11.528;2023-08-06T04:49:45;19.10;55.10
3868;DHT22;1949;48.152;11.528;2023-08-06T04:52:11;19.00;55.20
3868;DHT22;1949;48.152;11.528;2023-08-06T04:54:37;19.00;55.30
3868;DHT22;1949;48.152;11.528;2023-08-06T04:57:04;19.00;55.40
3868;DHT22;1949;48.152;11.528;2023-08-06T04:59:33;19.00;55.30
3868;DHT22;1949;48.152;11.528;2023-08-06T05:01:58;19.10;55.40
3868;DHT22;1949;48.152;11.528;2023-08-06T05:04:25;19.10;55.50
3868;DHT22;1949;48.152;11.528;2023-08-06T05:06:51;19.10;55.50
3868;DHT22;1949;48.152;11.528;2023-08-06T05:09:16;19.20;55.50
3868;DHT22;1949;48.152;11.528;2023-08-06T05:11:42;19.20;55.30
3868;DHT22;1949;48.152;11.528;2023-08-06T05:14:08;19.20;55.40
3868;DHT22;1949;48.152;11.528;2023-08-06T05:16:34;19.20;55.30
3868;DHT22;1949;48.152;11.528;2023-08-06T05:19:01;19.30;55.20
3868;DHT22;1949;48.152;11.528;2023-08-06T05:21:29;19.20;55.20
3868;DHT22;1949;48.152;11.528;2023-08-06T05:23:54;19.30;55.30
3868;DHT22;1949;48.152;11.528;2023-08-06T05:26:21;19.30;55.10
3868;DHT22;1949;48.152;11.528;2023-08-06T05:28:47;19.30;55.30
3868;DHT22;1949;48.152;11.528;2023-08-06T05:31:13;19.30;55.30
3868;DHT22;1949;48.152;11.528;2023-08-06T05:33:39;19.30;55.20
3868;DHT22;1949;48.152;11.528;2023-08-06T05:36:06;19.20;55.10
3868;DHT22;1949;48.152;11.528;2023-08-06T05:38:32;19.20;55.10
3868;DHT22;1949;48.152;11.528;2023-08-06T05:40:57;19.30;55.20
3868;DHT22;1949;48.152;11.528;2023-08-06T05:43:23;19.30;55.10
3868;DHT22;1949;48.152;11.528;2023-08-06T05:45:53;19.30;55.10
3868;DHT22;1949;48.152;11.528;2023-08-06T05:48:19;19.30;55.00
3868;DHT22;1949;48.152;11.528;2023-08-06T05:50:46;19.20;54.90
3868;DHT22;1949;48.152;11.528;2023-08-06T05:53:12;19.20;55.10
3868;DHT22;1949;48.152;11.528;2023-08-06T05:55:39;19.20;55.20
3868;DHT22;1949;48.152;11.528;2023-08-06T05:58:06;19.30;55.10
3868;DHT22;1949;48.152;11.528;2023-08-06T06:00:32;19.30;55.10
3868;DHT22;1949;48.152;11.528;2023-08-06T06:03:04;19.40;55.10
3868;DHT22;1949;48.152;11.528;2023-08-06T06:05:30;19.40;55.00
3868;DHT22;1949;48.152;11.528;2023-08-06T06:07:55;19.40;54.80
3868;DHT22;1949;48.152;11.528;2023-08-06T06:10:21;19.40;54.70
3868;DHT22;1949;48.152;11.528;2023-08-06T06:12:47;19.40;54.70
3868;DHT22;1949;48.152;11.528;2023-08-06T06:15:13;19.40;54.70
3868;DHT22;1949;48.152;11.528;2023-08-06T06:17:39;19.40;54.70
3868;DHT22;1949;48.152;11.528;2023-08-06T06:20:07;19.40;54.80
3868;DHT22;1949;48.152;11.528;2023-08-06T06:22:33;19.50;54.80
3868;DHT22;1949;48.152;11.528;2023-08-06T06:24:59;19.50;54.60
3868;DHT22;1949;48.152;11.528;2023-08-06T06:27:25;19.50;54.40
3868;DHT22;1949;48.152;11.528;2023-08-06T06:29:51;19.40;54.40
3868;DHT22;1949;48.152;11.528;2023-08-06T06:32:20;19.40;54.40
3868;DHT22;1949;48.152;11.528;2023-08-06T06:34:46;19.40;54.40
3868;DHT22;1949;48.152;11.528;2023-08-06T06:37:13;19.40;54.40
3868;DHT22;1949;48.152;11.528;2023-08-06T06:39:39;19.30;54.40
3868;DHT22;1949;48.152;11.528;2023-08-06T06:42:05;19.30;54.40
3868;DHT22;1949;48.152;11.528;2023-08-06T06:44:30;19.40;54.50
3868;DHT22;1949;48.152;11.528;2023-08-06T06:46:58;19.40;54.50
3868;DHT22;1949;48.152;11.528;2023-08-06T06:49:24;19.40;54.50
3868;DHT22;1949;48.152;11.528;2023-08-06T06:51:50;19.50;54.60
3868;DHT22;1949;48.152;11.528;2023-08-06T06:54:16;19.60;54.50
3868;DHT22;1949;48.152;11.528;2023-08-06T06:56:42;19.60;54.20
3868;DHT22;1949;48.152;11.528;2023-08-06T06:59:11;19.60;54.20
3868;DHT22;1949;48.152;11.528;2023-08-06T07:01:43;19.70;54.20
3868;DHT22;1949;48.152;11.528;2023-08-06T07:04:08;19.80;54.20
3868;DHT22;1949;48.152;11.528;2023-08-06T07:06:38;19.80;53.80
3868;DHT22;1949;48.152;11.528;2023-08-06T07:09:12;19.80;53.50
3868;DHT22;1949;48.152;11.528;2023-08-06T07:12:07;19.80;53.50
3868;DHT22;1949;48.152;11.528;2023-08-06T07:14:34;19.80;53.50
3868;DHT22;1949;48.152;11.528;2023-08-06T07:17:01;19.90;53.40
3868;DHT22;1949;48.152;11.528;2023-08-06T07:19:29;19.90;53.20
3868;DHT22;1949;48.152;11.528;2023-08-06T07:21:56;19.80;53.10
3868;DHT22;1949;48.152;11.528;2023-08-06T07:24:31;19.80;53.20
3868;DHT22;1949;48.152;11.528;2023-08-06T07:27:04;19.80;53.00
3868;DHT22;1949;48.152;11.528;2023-08-06T07:29:32;19.80;53.10
3868;DHT22;1949;48.152;11.528;2023-08-06T07:32:00;19.70;53.30
3868;DHT22;1949;48.152;11.528;2023-08-06T07:34:25;19.70;53.40
3868;DHT22;1949;48.152;11.528;2023-08-06T07:36:55;19.70;53.60
3868;DHT22;1949;48.152;11.528;2023-08-06T07:39:21;19.70;53.60
3868;DHT22;1949;48.152;11.528;2023-08-06T07:41:48;19.70;53.70
3868;DHT22;1949;48.152;11.528;2023-08-06T07:44:13;19.70;53.70
3868;DHT22;1949;48.152;11.528;2023-08-06T07:46:41;19.70;53.70
3868;DHT22;1949;48.152;11.528;2023-08-06T07:49:08;19.70;53.50
3868;DHT22;1949;48.152;11.528;2023-08-06T07:51:36;19.70;53.60
3868;DHT22;1949;48.152;11.528;2023-08-06T07:54:08;19.70;53.70
3868;DHT22;1949;48.152;11.528;2023-08-06T07:56:36;19.70;53.60
3868;DHT22;1949;48.152;11.528;2023-08-06T07:59:02;19.70;53.50
3868;DHT22;1949;48.152;11.528;2023-08-06T08:01:28;19.70;53.30
3868;DHT22;1949;48.152;11.528;2023-08-06T08:03:55;19.70;53.50
3868;DHT22;1949;48.152;11.528;2023-08-06T08:06:25;19.70;53.60
3868;DHT22;1949;48.152;11.528;2023-08-06T08:08:54;19.70;53.30
3868;DHT22;1949;48.152;11.528;2023-08-06T08:11:22;19.80;53.40
3868;DHT22;1949;48.152;11.528;2023-08-06T08:13:47;19.80;53.30
3868;DHT22;1949;48.152;11.528;2023-08-06T08:16:13;19.80;53.20
3868;DHT22;1949;48.152;11.528;2023-08-06T08:18:39;19.80;53.30
3868;DHT22;1949;48.152;11.528;2023-08-06T08:21:04;19.90;53.10
3868;DHT22;1949;48.152;11.528;2023-08-06T08:23:31;19.90;53.00
3868;DHT22;1949;48.152;11.528;2023-08-06T08:25:58;19.90;52.80
3868;DHT22;1949;48.152;11.528;2023-08-06T08:28:26;20.00;52.70
3868;DHT22;1949;48.152;11.528;2023-08-06T08:31:01;20.00;52.60
3868;DHT22;1949;48.152;11.528;2023-08-06T08:33:30;20.10;52.60
3868;DHT22;1949;48.152;11.528;2023-08-06T08:35:57;20.10;52.40
3868;DHT22;1949;48.152;11.528;2023-08-06T08:38:28;20.10;52.30
3868;DHT22;1949;48.152;11.528;2023-08-06T08:40:54;20.10;52.20
3868;DHT22;1949;48.152;11.528;2023-08-06T08:43:23;20.10;52.10
3868;DHT22;1949;48.152;11.528;2023-08-06T08:45:56;20.10;52.10
3868;DHT22;1949;48.152;11.528;2023-08-06T08:48:26;20.10;51.70
3868;DHT22;1949;48.152;11.528;2023-08-06T08:50:53;20.10;51.90
3868;DHT22;1949;48.152;11.528;2023-08-06T08:53:21;20.00;51.80
3868;DHT22;1949;48.152;11.528;2023-08-06T08:55:49;20.00;51.70
3868;DHT22;1949;48.152;11.528;2023-08-06T08:58:17;20.00;51.80
3868;DHT22;1949;48.152;11.528;2023-08-06T09:00:47;20.00;51.70
3868;DHT22;1949;48.152;11.528;2023-08-06T09:03:18;20.00;51.50
3868;DHT22;1949;48.152;11.528;2023-08-06T09:05:45;19.90;51.50
3868;DHT22;1949;48.152;11.528;2023-08-06T09:08:27;20.10;51.70
3868;DHT22;1949;48.152;11.528;2023-08-06T09:10:59;20.10;52.10
3868;DHT22;1949;48.152;11.528;2023-08-06T09:13:32;20.10;51.50
3868;DHT22;1949;48.152;11.528;2023-08-06T09:15:57;20.10;51.30
3868;DHT22;1949;48.152;11.528;2023-08-06T09:18:27;20.00;51.40
3868;DHT22;1949;48.152;11.528;2023-08-06T09:21:00;19.90;51.30
3868;DHT22;1949;48.152;11.528;2023-08-06T09:23:30;19.80;51.00
3868;DHT22;1949;48.152;11.528;2023-08-06T09:25:58;19.80;51.30
3868;DHT22;1949;48.152;11.528;2023-08-06T09:28:37;19.70;51.20
3868;DHT22;1949;48.152;11.528;2023-08-06T09:31:05;19.80;51.50
3868;DHT22;1949;48.152;11.528;2023-08-06T09:33:37;19.80;51.30
3868;DHT22;1949;48.152;11.528;2023-08-06T09:36:17;19.80;51.90
3868;DHT22;1949;48.152;11.528;2023-08-06T09:38:44;19.80;51.20
3868;DHT22;1949;48.152;11.528;2023-08-06T09:41:10;19.80;51.10
3868;DHT22;1949;48.152;11.528;2023-08-06T09:43:44;19.80;51.20
3868;DHT22;1949;48.152;11.528;2023-08-06T09:46:16;19.80;51.10
3868;DHT22;1949;48.152;11.528;2023-08-06T09:48:46;19.80;51.20
3868;DHT22;1949;48.152;11.528;2023-08-06T09:51:18;19.90;51.30
3868;DHT22;1949;48.152;11.528;2023-08-06T09:53:50;19.90;51.20
3868;DHT22;1949;48.152;11.528;2023-08-06T09:56:17;19.90;50.80
3868;DHT22;1949;48.152;11.528;2023-08-06T09:58:44;19.90;50.80
3868;DHT22;1949;48.152;11.528;2023-08-06T10:01:17;19.90;50.80
3868;DHT22;1949;48.152;11.528;2023-08-06T10:03:47;19.90;50.70
3868;DHT22;1949;48.152;11.528;2023-08-06T10:06:14;19.90;50.60
3868;DHT22;1949;48.152;11.528;2023-08-06T10:08:42;19.90;50.60
3868;DHT22;1949;48.152;11.528;2023-08-06T10:11:11;19.90;50.60
3868;DHT22;1949;48.152;11.528;2023-08-06T10:13:38;19.90;50.60
3868;DHT22;1949;48.152;11.528;2023-08-06T10:16:09;19.80;50.50
3868;DHT22;1949;48.152;11.528;2023-08-06T10:18:38;19.80;50.60
3868;DHT22;1949;48.152;11.528;2023-08-06T10:21:11;19.90;50.70
3868;DHT22;1949;48.152;11.528;2023-08-06T10:23:40;20.00;50.60
3868;DHT22;1949;48.152;11.528;2023-08-06T10:26:07;20.00;50.50
3868;DHT22;1949;48.152;11.528;2023-08-06T10:28:40;20.10;50.50
3868;DHT22;1949;48.152;11.528;2023-08-06T10:31:06;20.10;50.20
3868;DHT22;1949;48.152;11.528;2023-08-06T10:34:01;20.00;50.30
3868;DHT22;1949;48.152;11.528;2023-08-06T10:36:27;20.00;50.50
3868;DHT22;1949;48.152;11.528;2023-08-06T10:38:52;20.00;50.20
3868;DHT22;1949;48.152;11.528;2023-08-06T10:41:28;20.00;50.40
3868;DHT22;1949;48.152;11.528;2023-08-06T10:44:17;20.00;50.30
3868;DHT22;1949;48.152;11.528;2023-08-06T10:46:44;19.90;50.30
3868;DHT22;1949;48.152;11.528;2023-08-06T10:49:20;20.00;50.40
3868;DHT22;1949;48.152;11.528;2023-08-06T10:51:53;20.00;50.10
3868;DHT22;1949;48.152;11.528;2023-08-06T10:54:24;20.00;50.10
3868;DHT22;1949;48.152;11.528;2023-08-06T10:56:54;19.90;50.00
3868;DHT22;1949;48.152;11.528;2023-08-06T10:59:21;19.90;50.20
3868;DHT22;1949;48.152;11.528;2023-08-06T11:01:49;20.00;50.30
3868;DHT22;1949;48.152;11.528;2023-08-06T11:04:21;20.10;50.30
3868;DHT22;1949;48.152;11.528;2023-08-06T11:06:58;20.10;50.20
3868;DHT22;1949;48.152;11.528;2023-08-06T11:09:26;20.10;50.10
3868;DHT22;1949;48.152;11.528;2023-08-06T11:11:53;20.10;50.00
3868;DHT22;1949;48.152;11.528;2023-08-06T11:14:26;20.10;50.00
3868;DHT22;1949;48.152;11.528;2023-08-06T11:16:52;20.20;50.20
3868;DHT22;1949;48.152;11.528;2023-08-06T11:19:23;20.20;50.00
3868;DHT22;1949;48.152;11.528;2023-08-06T11:21:51;20.20;50.00
3868;DHT22;1949;48.152;11.528;2023-08-06T11:24:18;20.20;49.80
3868;DHT22;1949;48.152;11.528;2023-08-06T11:26:45;20.20;49.70
3868;DHT22;1949;48.152;11.528;2023-08-06T11:29:18;20.20;49.80
3868;DHT22;1949;48.152;11.528;2023-08-06T11:31:47;20.10;49.60
3868;DHT22;1949;48.152;11.528;2023-08-06T11:34:13;20.10;49.60
3868;DHT22;1949;48.152;11.528;2023-08-06T11:36:41;20.10;49.80
3868;DHT22;1949;48.152;11.528;2023-08-06T11:39:08;20.20;49.90
3868;DHT22;1949;48.152;11.528;2023-08-06T11:41:36;20.20;49.80
3868;DHT22;1949;48.152;11.528;2023-08-06T11:44:03;20.20;49.80
3868;DHT22;1949;48.152;11.528;2023-08-06T11:46:49;20.20;50.00
3868;DHT22;1949;48.152;11.528;2023-08-06T11:49:15;20.20;49.70
3868;DHT22;1949;48.152;11.528;2023-08-06T11:51:41;20.10;49.50
3868;DHT22;1949;48.152;11.528;2023-08-06T11:54:12;20.10;49.60
3868;DHT22;1949;48.152;11.528;2023-08-06T11:56:38;20.10;50.00
3868;DHT22;1949;48.152;11.528;2023-08-06T11:59:07;20.20;50.10
3868;DHT22;1949;48.152;11.528;2023-08-06T12:01:34;20.30;50.00
3868;DHT22;1949;48.152;11.528;2023-08-06T12:04:00;20.30;49.70
3868;DHT22;1949;48.152;11.528;2023-08-06T12:06:29;20.20;49.50
3868;DHT22;1949;48.152;11.528;2023-08-06T12:08:54;20.20;49.70
3868;DHT22;1949;48.152;11.528;2023-08-06T12:11:23;20.20;49.80
3868;DHT22;1949;48.152;11.528;2023-08-06T12:13:52;20.10;49.80
3868;DHT22;1949;48.152;11.528;2023-08-06T12:16:20;20.10;49.60
3868;DHT22;1949;48.152;11.528;2023-08-06T12:18:47;20.10;49.80
3868;DHT22;1949;48.152;11.528;2023-08-06T12:21:17;20.00;49.80
3868;DHT22;1949;48.152;11.528;2023-08-06T12:23:43;20.10;50.00
3868;DHT22;1949;48.152;11.528;2023-08-06T12:26:10;20.10;50.00
3868;DHT22;1949;48.152;11.528;2023-08-06T12:28:41;20.10;49.90
3868;DHT22;1949;48.152;11.528;2023-08-06T12:31:06;20.10;49.70
3868;DHT22;1949;48.152;11.528;2023-08-06T12:33:40;20.10;49.90
3868;DHT22;1949;48.152;11.528;2023-08-06T12:36:07;20.20;49.90
3868;DHT22;1949;48.152;11.528;2023-08-06T12:38:34;20.20;49.90
3868;DHT22;1949;48.152;11.528;2023-08-06T12:40:59;20.20;49.80
3868;DHT22;1949;48.152;11.528;2023-08-06T12:43:25;20.20;49.90
3868;DHT22;1949;48.152;11.528;2023-08-06T12:45:51;20.10;49.90
3868;DHT22;1949;48.152;11.528;2023-08-06T12:48:18;20.00;50.10
3868;DHT22;1949;48.152;11.528;2023-08-06T12:50:53;19.90;50.20
3868;DHT22;1949;48.152;11.528;2023-08-06T12:53:23;19.90;50.50
3868;DHT22;1949;48.152;11.528;2023-08-06T12:55:49;19.90;50.80
3868;DHT22;1949;48.152;11.528;2023-08-06T12:58:15;19.80;50.90
3868;DHT22;1949;48.152;11.528;2023-08-06T13:00:44;19.90;51.30
3868;DHT22;1949;48.152;11.528;2023-08-06T13:03:12;19.90;50.70
3868;DHT22;1949;48.152;11.528;2023-08-06T13:05:42;19.90;50.70
3868;DHT22;1949;48.152;11.528;2023-08-06T13:08:08;19.90;50.50
3868;DHT22;1949;48.152;11.528;2023-08-06T13:10:34;19.90;50.50
3868;DHT22;1949;48.152;11.528;2023-08-06T13:13:01;20.10;50.90
3868;DHT22;1949;48.152;11.528;2023-08-06T13:15:29;20.20;50.90
3868;DHT22;1949;48.152;11.528;2023-08-06T13:17:56;20.40;50.50
3868;DHT22;1949;48.152;11.528;2023-08-06T13:20:25;20.50;50.40
3868;DHT22;1949;48.152;11.528;2023-08-06T13:22:51;20.60;50.10
3868;DHT22;1949;48.152;11.528;2023-08-06T13:25:22;20.50;49.90
3868;DHT22;1949;48.152;11.528;2023-08-06T13:27:48;20.20;50.60
3868;DHT22;1949;48.152;11.528;2023-08-06T13:30:21;20.10;50.30
3868;DHT22;1949;48.152;11.528;2023-08-06T13:32:48;19.90;50.50
3868;DHT22;1949;48.152;11.528;2023-08-06T13:35:14;19.80;50.60
3868;DHT22;1949;48.152;11.528;2023-08-06T13:37:47;19.80;51.20
3868;DHT22;1949;48.152;11.528;2023-08-06T13:40:15;19.90;51.20
3868;DHT22;1949;48.152;11.528;2023-08-06T13:42:43;19.90;51.20
3868;DHT22;1949;48.152;11.528;2023-08-06T13:45:09;19.90;51.10
3868;DHT22;1949;48.152;11.528;2023-08-06T13:47:35;19.90;51.20
3868;DHT22;1949;48.152;11.528;2023-08-06T13:50:02;20.00;51.10
3868;DHT22;1949;48.152;11.528;2023-08-06T13:52:36;19.90;50.90
3868;DHT22;1949;48.152;11.528;2023-08-06T13:55:11;19.80;50.70
3868;DHT22;1949;48.152;11.528;2023-08-06T13:57:37;19.70;51.00
3868;DHT22;1949;48.152;11.528;2023-08-06T14:00:10;19.60;51.50
3868;DHT22;1949;48.152;11.528;2023-08-06T14:02:36;19.60;51.40
3868;DHT22;1949;48.152;11.528;2023-08-06T14:05:03;19.60;51.40
3868;DHT22;1949;48.152;11.528;2023-08-06T14:07:32;19.50;51.40
3868;DHT22;1949;48.152;11.528;2023-08-06T14:09:59;19.50;51.70
3868;DHT22;1949;48.152;11.528;2023-08-06T14:12:36;19.50;51.70
3868;DHT22;1949;48.152;11.528;2023-08-06T14:15:03;19.40;51.60
3868;DHT22;1949;48.152;11.528;2023-08-06T14:17:30;19.40;51.90
3868;DHT22;1949;48.152;11.528;2023-08-06T14:19:55;19.40;51.90
3868;DHT22;1949;48.152;11.528;2023-08-06T14:22:22;19.30;51.80
3868;DHT22;1949;48.152;11.528;2023-08-06T14:24:48;19.30;52.00
3868;DHT22;1949;48.152;11.528;2023-08-06T14:27:24;19.30;52.20
3868;DHT22;1949;48.152;11.528;2023-08-06T14:29:51;19.30;52.40
3868;DHT22;1949;48.152;11.528;2023-08-06T14:32:17;19.30;52.30
3868;DHT22;1949;48.152;11.528;2023-08-06T14:34:45;19.30;52.40
3868;DHT22;1949;48.152;11.528;2023-08-06T14:37:17;19.20;52.30
3868;DHT22;1949;48.152;11.528;2023-08-06T14:39:43;19.20;52.40
3868;DHT22;1949;48.152;11.528;2023-08-06T14:42:11;19.20;52.40
3868;DHT22;1949;48.152;11.528;2023-08-06T14:44:37;19.10;52.50
3868;DHT22;1949;48.152;11.528;2023-08-06T14:47:04;19.10;52.30
3868;DHT22;1949;48.152;11.528;2023-08-06T14:49:33;19.00;52.40
3868;DHT22;1949;48.152;11.528;2023-08-06T14:52:07;19.00;52.60
3868;DHT22;1949;48.152;11.528;2023-08-06T14:54:33;18.90;52.70
3868;DHT22;1949;48.152;11.528;2023-08-06T14:57:00;18.90;52.90
3868;DHT22;1949;48.152;11.528;2023-08-06T14:59:26;18.90;53.10
3868;DHT22;1949;48.152;11.528;2023-08-06T15:01:53;18.90;53.20
3868;DHT22;1949;48.152;11.528;2023-08-06T15:04:19;18.90;52.90
3868;DHT22;1949;48.152;11.528;2023-08-06T15:06:45;18.80;52.70
3868;DHT22;1949;48.152;11.528;2023-08-06T15:09:11;18.80;52.90
3868;DHT22;1949;48.152;11.528;2023-08-06T15:11:43;18.80;53.30
3868;DHT22;1949;48.152;11.528;2023-08-06T15:14:08;18.80;53.10
3868;DHT22;1949;48.152;11.528;2023-08-06T15:16:34;18.80;53.20
3868;DHT22;1949;48.152;11.528;2023-08-06T15:19:03;18.80;53.10
3868;DHT22;1949;48.152;11.528;2023-08-06T15:21:32;18.80;53.10
3868;DHT22;1949;48.152;11.528;2023-08-06T15:24:12;18.70;53.20
3868;DHT22;1949;48.152;11.528;2023-08-06T15:26:38;18.80;53.30
3868;DHT22;1949;48.152;11.528;2023-08-06T15:29:04;18.80;53.40
3868;DHT22;1949;48.152;11.528;2023-08-06T15:31:36;18.80;53.40
3868;DHT22;1949;48.152;11.528;2023-08-06T15:34:06;18.80;53.20
3868;DHT22;1949;48.152;11.528;2023-08-06T15:36:34;18.70;53.10
3868;DHT22;1949;48.152;11.528;2023-08-06T15:39:05;18.70;53.50
3868;DHT22;1949;48.152;11.528;2023-08-06T15:41:38;18.70;53.60
3868;DHT22;1949;48.152;11.528;2023-08-06T15:44:07;18.70;53.50
3868;DHT22;1949;48.152;11.528;2023-08-06T15:46:33;18.70;53.60
3868;DHT22;1949;48.152;11.528;2023-08-06T15:49:01;18.70;53.50
3868;DHT22;1949;48.152;11.528;2023-08-06T15:51:36;18.70;53.60
3868;DHT22;1949;48.152;11.528;2023-08-06T15:54:02;18.70;53.60
3868;DHT22;1949;48.152;11.528;2023-08-06T15:56:28;18.70;53.60